Impacts TAF Board
For situational awareness. Not to be used for flight planning purposes.
IDs:

KAEG - Albuquerque/Double E, NM, US

Issued at 1736 UTC 08 Aug 2020
Updated at 2052 UTC 08 Aug 2020
Potential Impact None Slight Moderate High
Time2050Z 08/21Z 08/22Z 08/23Z 09/00Z 09/01Z 09/02Z 09/03Z 09/04Z 09/05Z 09/06Z 09/07Z 09/08Z 09/09Z>>
Type OBS PRVL PRVL PRVL PRVL PRVL PRVL PRVL PRVL PRVL PRVL PRVL PRVL PRVL
VIS 10 >6 >6 >6 >6 >6 >6 >6 >6 >6 >6 >6 >6 >6
CIG -- -- 120 120 120 120 110 110 110 110 110 110 110 110
Cover CLR SCT BKN BKN BKN BKN BKN BKN BKN BKN BKN BKN BKN BKN
FltCat VFR VFR VFR VFR VFR VFR VFR VFR VFR VFR VFR VFR VFR VFR
WX -- -- -- -- -- -- -- -- -- -- -- -- -- --
WDir 340 300 300 300 300 300 310 310 310 310 310 310 310 310
WSpd 8 9 10 10 10 10 8 8 8 8 8 8 8 8
WGst -- -- 17 17 17 17 -- -- -- -- -- -- -- --
Raw TAF
KAEG 081736Z 0818/0918 29006KT P6SM FEW120
  FM081900 30009KT P6SM SCT120
  FM082200 30010G17KT P6SM BKN120
  FM090200 31008KT P6SM BKN110


Raw METAR
KAEG 082050Z 34008KT 10SM CLR 34/M01 A3020 RMK TCU DSNT W-N
KAEG 081947Z 28008KT 10SM CLR 32/00 A3023
KAEG 081847Z VRB06KT 10SM CLR 31/05 A3025
KAEG 081750Z VRB06KT 10SM CLR 31/04 A3027

METAR Board
Radar Display
Forecast Discussion
For situational awareness. Not to be used for flight planning purposes.